TimeMDT,TemperatureF,Dew PointF,Humidity,Sea Level PressureIn,VisibilityMPH,Wind Direction,Wind SpeedMPH,Gust SpeedMPH,PrecipitationIn,Events,Conditions,WindDirDegrees,DateUTC
12:00 AM,48,37,57,,,SSW,8.1,,,,,210,2012-10-14 06:00:00
12:00 AM,47.8,37.4,67,-9999,-9999.0,SSW,8.1,-,N/A,,Unknown,210,2012-10-14 06:00:00
1:00 AM,51.1,37.9,61,-9999,-9999.0,West,11.5,-,N/A,,Unknown,260,2012-10-14 07:00:00
2:00 AM,52.0,38.1,59,-9999,-9999.0,WSW,15.0,-,N/A,,Unknown,250,2012-10-14 08:00:00
3:00 AM,52.0,37.9,59,-9999,-9999.0,WSW,16.1,-,N/A,,Unknown,250,2012-10-14 09:00:00
4:00 AM,53.2,36.9,54,-9999,-9999.0,WSW,18.4,-,N/A,,Unknown,250,2012-10-14 10:00:00
5:00 AM,52.3,37.2,56,-9999,-9999.0,WSW,13.8,-,N/A,,Unknown,250,2012-10-14 11:00:00
6:00 AM,48,39,61,,,SSW,8.1,,,,,210,2012-10-14 12:00:00
6:00 AM,48.2,38.7,70,-9999,-9999.0,SSW,8.1,-,N/A,,Unknown,210,2012-10-14 12:00:00
7:00 AM,51.1,39.0,63,-9999,-9999.0,SW,15.0,-,N/A,,Unknown,230,2012-10-14 13:00:00
8:00 AM,48.9,38.5,67,-9999,-9999.0,SSW,11.5,-,N/A,,Unknown,200,2012-10-14 14:00:00
9:00 AM,51.4,41.0,68,-9999,-9999.0,SSW,10.4,-,N/A,,Unknown,200,2012-10-14 15:00:00
10:00 AM,53.8,42.4,65,-9999,-9999.0,SSW,11.5,-,N/A,,Unknown,200,2012-10-14 16:00:00
11:00 AM,57.0,43.7,61,-9999,-9999.0,SSW,16.1,-,N/A,,Unknown,210,2012-10-14 17:00:00
12:00 PM,58,44,50,,,SSW,16.1,,,,,200,2012-10-14 18:00:00
12:00 PM,57.9,44.4,61,-9999,-9999.0,SSW,16.1,-,N/A,,Unknown,200,2012-10-14 18:00:00
1:00 PM,58.6,44.6,60,-9999,-9999.0,SSW,16.1,-,N/A,,Unknown,200,2012-10-14 19:00:00
2:00 PM,60.1,43.7,55,-9999,-9999.0,SSW,18.4,-,N/A,,Unknown,210,2012-10-14 20:00:00
3:00 PM,61.7,43.7,52,-9999,-9999.0,SSW,15.0,-,N/A,,Unknown,210,2012-10-14 21:00:00
4:00 PM,64.9,41.5,42,-9999,-9999.0,SW,20.7,-,N/A,,Unknown,230,2012-10-14 22:00:00
5:00 PM,64.4,41.0,42,-9999,-9999.0,WSW,20.7,-,N/A,,Unknown,240,2012-10-14 23:00:00
6:00 PM,64,41,31,,,WSW,21.9,,,,,240,2012-10-15 00:00:00
6:00 PM,63.9,40.8,43,-9999,-9999.0,WSW,21.9,-,N/A,,Unknown,240,2012-10-15 00:00:00
7:00 PM,62.4,41.4,46,-9999,-9999.0,WSW,18.4,-,N/A,,Unknown,240,2012-10-15 01:00:00
8:00 PM,59.7,41.7,51,-9999,-9999.0,SW,13.8,-,N/A,,Unknown,230,2012-10-15 02:00:00
9:00 PM,61.7,38.7,43,-9999,-9999.0,WSW,34.5,-,N/A,,Unknown,250,2012-10-15 03:00:00
11:00 PM,60.4,39.7,46,-9999,-9999.0,WSW,33.4,-,N/A,,Unknown,240,2012-10-15 05:00:00